Portada
METAR-TAF:

METAR-TAF

Aeroports :

Den Helder, Països Baixos

latitud: 52-55N, longitud: 004-47E, altitud: 0 m

Observació

L'informe es va fer fa 33 minuts, a les 09:55 UTC
Vent 5 kt del Sud, variant entre Est i Sud-Oest
Temperatura 20°C
Humitat 68%
Pressió 1015 hPa
Visibilitat 10 km o més
Escasses núvols a una alçada de 1800 ft

METAR: EHKD 170955Z AUTO 15005KT 090V220 9999 NCD 20/14 Q1015 BLU 18005KT 9999 FEW018

Hora: 12:28 (10:28 UTC)

Pronòstic

L'informe es va fer fa 1 hora i 51 minuts, a les 08:37 UTC
Pronòstic vàlid del 17 a les 09 UTC al 17 a les 21 UTC
Vent 6 kt del Est/Sud-Est
Visibilitat 10 km o més
sense núvols per sota de 1500 mi sense presència de cumulonimbus.
Evolucionant progressivament
l' 17 a les 09 UTC al 17 a les 12 UTC
Vent 5 kt del Oest/Nord-Oest
Escasses núvols a una alçada de 2000 ft
Evolucionant progressivament
l' 17 a les 18 UTC al 17 a les 21 UTC
Vent 7 kt del Est/Sud-Est

TAF: EHKD 170837Z 1709/1721 12006KT CAVOK BECMG 1709/1712 30005KT FEW020 BECMG 1718/1721 12007KT

Observacions i pronòstics meteorològics de més de 4000 aeroports (METAR i TAF).

Les estacions disponibles són els punts grocs i vermells al mapa.

Posi el ratolí al punt desitjat per veure el nom de l'estació.

Feu clic per veure les observacions i els pronòstics meteorològics.

Per canviar el mapa: feu clic els botons verds amb una creu de color negre per apropar; al botó verd amb un guió per allunyar la imatge; o en les fletxes verdes per a mapes adjacents.


METAR-TAF: